sensor_id;sensor_type;location;lat;lon;timestamp;pressure;altitude;pressure_sealevel;temperature;humidity
69982;BME280;57319;56.274;43.980;2024-02-15T00:02:15;102017.03;;;-21.68;82.21
69982;BME280;57319;56.274;43.980;2024-02-15T00:04:41;102009.69;;;-21.74;82.55
69982;BME280;57319;56.274;43.980;2024-02-15T00:07:08;102009.16;;;-21.88;82.40
69982;BME280;57319;56.274;43.980;2024-02-15T00:09:34;102013.91;;;-21.73;82.64
69982;BME280;57319;56.274;43.980;2024-02-15T00:12:01;102018.84;;;-21.67;82.34
69982;BME280;57319;56.274;43.980;2024-02-15T00:14:26;102027.94;;;-21.72;82.44
69982;BME280;57319;56.274;43.980;2024-02-15T00:16:54;102021.03;;;-21.74;82.39
69982;BME280;57319;56.274;43.980;2024-02-15T00:19:20;102029.28;;;-21.62;82.34
69982;BME280;57319;56.274;43.980;2024-02-15T00:21:47;102032.75;;;-21.77;82.49
69982;BME280;57319;56.274;43.980;2024-02-15T00:24:12;102039.28;;;-21.66;82.43
69982;BME280;57319;56.274;43.980;2024-02-15T00:26:40;102047.50;;;-21.72;82.21
69982;BME280;57319;56.274;43.980;2024-02-15T00:29:07;102040.19;;;-21.66;82.37
69982;BME280;57319;56.274;43.980;2024-02-15T00:31:33;102039.03;;;-21.68;82.02
69982;BME280;57319;56.274;43.980;2024-02-15T00:33:59;102042.81;;;-21.70;82.03
69982;BME280;57319;56.274;43.980;2024-02-15T00:36:25;102045.03;;;-21.72;81.65
69982;BME280;57319;56.274;43.980;2024-02-15T00:38:50;102041.00;;;-21.77;81.79
69982;BME280;57319;56.274;43.980;2024-02-15T00:41:17;102046.09;;;-21.81;81.57
69982;BME280;57319;56.274;43.980;2024-02-15T00:43:45;102040.97;;;-21.82;81.59
69982;BME280;57319;56.274;43.980;2024-02-15T00:46:11;102034.94;;;-21.84;81.67
69982;BME280;57319;56.274;43.980;2024-02-15T00:48:36;102035.59;;;-21.85;82.00
69982;BME280;57319;56.274;43.980;2024-02-15T00:51:02;102027.81;;;-21.89;81.70
69982;BME280;57319;56.274;43.980;2024-02-15T00:53:29;102035.75;;;-21.95;81.79
69982;BME280;57319;56.274;43.980;2024-02-15T00:55:55;102029.06;;;-22.02;82.10
69982;BME280;57319;56.274;43.980;2024-02-15T00:58:21;102026.88;;;-22.00;81.96
69982;BME280;57319;56.274;43.980;2024-02-15T01:00:47;102031.50;;;-22.02;81.97
69982;BME280;57319;56.274;43.980;2024-02-15T01:03:12;102031.03;;;-22.05;81.87
69982;BME280;57319;56.274;43.980;2024-02-15T01:05:38;102039.22;;;-22.10;81.81
69982;BME280;57319;56.274;43.980;2024-02-15T01:08:04;102036.31;;;-22.13;81.93
69982;BME280;57319;56.274;43.980;2024-02-15T01:10:30;102047.88;;;-22.12;81.99
69982;BME280;57319;56.274;43.980;2024-02-15T01:12:56;102039.38;;;-22.20;82.03
69982;BME280;57319;56.274;43.980;2024-02-15T01:15:21;102045.34;;;-22.24;81.99
69982;BME280;57319;56.274;43.980;2024-02-15T01:17:47;102055.78;;;-22.25;81.75
69982;BME280;57319;56.274;43.980;2024-02-15T01:20:13;102044.22;;;-22.26;81.96
69982;BME280;57319;56.274;43.980;2024-02-15T01:22:39;102046.63;;;-22.31;81.83
69982;BME280;57319;56.274;43.980;2024-02-15T01:25:05;102044.16;;;-22.31;81.82
69982;BME280;57319;56.274;43.980;2024-02-15T01:27:32;102042.38;;;-22.32;81.92
69982;BME280;57319;56.274;43.980;2024-02-15T01:29:59;102039.59;;;-22.51;81.61
69982;BME280;57319;56.274;43.980;2024-02-15T01:32:25;102043.94;;;-22.39;81.66
69982;BME280;57319;56.274;43.980;2024-02-15T01:34:53;102039.19;;;-22.48;81.50
69982;BME280;57319;56.274;43.980;2024-02-15T01:37:21;102037.78;;;-22.58;81.60
69982;BME280;57319;56.274;43.980;2024-02-15T01:39:47;102037.78;;;-22.58;81.77
69982;BME280;57319;56.274;43.980;2024-02-15T01:42:13;102040.03;;;-22.53;81.69
69982;BME280;57319;56.274;43.980;2024-02-15T01:44:42;102038.47;;;-22.53;81.58
69982;BME280;57319;56.274;43.980;2024-02-15T01:47:10;102052.88;;;-22.54;81.96
69982;BME280;57319;56.274;43.980;2024-02-15T01:49:37;102041.09;;;-22.57;81.73
69982;BME280;57319;56.274;43.980;2024-02-15T01:52:04;102049.09;;;-22.58;81.89
69982;BME280;57319;56.274;43.980;2024-02-15T01:54:34;102047.72;;;-22.62;81.71
69982;BME280;57319;56.274;43.980;2024-02-15T01:57:04;102051.72;;;-22.62;81.80
69982;BME280;57319;56.274;43.980;2024-02-15T01:59:30;102053.47;;;-22.61;81.68
69982;BME280;57319;56.274;43.980;2024-02-15T02:01:56;102052.13;;;-22.65;82.15
69982;BME280;57319;56.274;43.980;2024-02-15T02:04:22;102051.00;;;-22.67;81.60
69982;BME280;57319;56.274;43.980;2024-02-15T02:06:48;102054.81;;;-22.63;81.81
69982;BME280;57319;56.274;43.980;2024-02-15T02:09:14;102066.03;;;-22.69;81.08
69982;BME280;57319;56.274;43.980;2024-02-15T02:11:41;102064.28;;;-22.70;81.56
69982;BME280;57319;56.274;43.980;2024-02-15T02:14:10;102063.63;;;-22.91;80.96
69982;BME280;57319;56.274;43.980;2024-02-15T02:16:37;102061.72;;;-22.82;81.26
69982;BME280;57319;56.274;43.980;2024-02-15T02:19:05;102058.38;;;-22.82;81.42
69982;BME280;57319;56.274;43.980;2024-02-15T02:21:35;102066.53;;;-22.87;81.46
69982;BME280;57319;56.274;43.980;2024-02-15T02:24:10;102068.78;;;-22.83;81.76
69982;BME280;57319;56.274;43.980;2024-02-15T02:26:38;102067.19;;;-22.88;81.46
69982;BME280;57319;56.274;43.980;2024-02-15T02:29:04;102067.53;;;-22.97;80.94
69982;BME280;57319;56.274;43.980;2024-02-15T02:31:34;102067.97;;;-22.99;81.49
69982;BME280;57319;56.274;43.980;2024-02-15T02:34:00;102054.00;;;-23.00;81.39
69982;BME280;57319;56.274;43.980;2024-02-15T02:36:26;102057.72;;;-23.02;81.17
69982;BME280;57319;56.274;43.980;2024-02-15T02:38:54;102058.13;;;-23.05;80.96
69982;BME280;57319;56.274;43.980;2024-02-15T02:41:20;102059.78;;;-23.21;81.37
69982;BME280;57319;56.274;43.980;2024-02-15T02:43:47;102058.97;;;-23.10;81.56
69982;BME280;57319;56.274;43.980;2024-02-15T02:46:12;102061.81;;;-23.18;81.46
69982;BME280;57319;56.274;43.980;2024-02-15T02:48:39;102065.19;;;-23.12;81.35
69982;BME280;57319;56.274;43.980;2024-02-15T02:51:06;102064.94;;;-23.14;81.19
69982;BME280;57319;56.274;43.980;2024-02-15T02:53:32;102068.72;;;-23.16;81.57
69982;BME280;57319;56.274;43.980;2024-02-15T02:55:58;102069.34;;;-23.17;81.42
69982;BME280;57319;56.274;43.980;2024-02-15T02:58:24;102071.56;;;-23.18;81.51
69982;BME280;57319;56.274;43.980;2024-02-15T03:00:51;102085.97;;;-23.20;80.96
69982;BME280;57319;56.274;43.980;2024-02-15T03:03:17;102080.56;;;-23.23;81.45
69982;BME280;57319;56.274;43.980;2024-02-15T03:05:44;102083.69;;;-23.24;81.31
69982;BME280;57319;56.274;43.980;2024-02-15T03:08:13;102094.72;;;-23.26;81.56
69982;BME280;57319;56.274;43.980;2024-02-15T03:10:39;102092.47;;;-23.30;81.27
69982;BME280;57319;56.274;43.980;2024-02-15T03:13:06;102091.09;;;-23.49;81.31
69982;BME280;57319;56.274;43.980;2024-02-15T03:15:35;102102.38;;;-23.34;81.69
69982;BME280;57319;56.274;43.980;2024-02-15T03:18:02;102109.69;;;-23.34;81.39
69982;BME280;57319;56.274;43.980;2024-02-15T03:20:33;102116.47;;;-23.43;81.80
69982;BME280;57319;56.274;43.980;2024-02-15T03:23:00;102115.38;;;-23.39;81.52
69982;BME280;57319;56.274;43.980;2024-02-15T03:25:27;102120.78;;;-23.36;81.08
69982;BME280;57319;56.274;43.980;2024-02-15T03:27:58;102127.34;;;-23.41;80.95
69982;BME280;57319;56.274;43.980;2024-02-15T03:30:26;102132.63;;;-23.44;80.81
69982;BME280;57319;56.274;43.980;2024-02-15T03:32:53;102133.53;;;-23.43;81.17
69982;BME280;57319;56.274;43.980;2024-02-15T03:35:21;102133.53;;;-23.43;81.04
69982;BME280;57319;56.274;43.980;2024-02-15T03:37:49;102129.69;;;-23.47;81.10
69982;BME280;57319;56.274;43.980;2024-02-15T03:40:22;102137.00;;;-23.47;81.01
69982;BME280;57319;56.274;43.980;2024-02-15T03:42:49;102137.25;;;-23.45;80.90
69982;BME280;57319;56.274;43.980;2024-02-15T03:45:17;102130.09;;;-23.49;81.38
69982;BME280;57319;56.274;43.980;2024-02-15T03:47:43;102141.25;;;-23.46;80.83
69982;BME280;57319;56.274;43.980;2024-02-15T03:50:09;102133.78;;;-23.57;81.34
69982;BME280;57319;56.274;43.980;2024-02-15T03:52:36;102136.28;;;-23.51;81.14
69982;BME280;57319;56.274;43.980;2024-02-15T03:55:02;102136.69;;;-23.54;80.70
69982;BME280;57319;56.274;43.980;2024-02-15T03:57:29;102132.22;;;-23.56;81.10
69982;BME280;57319;56.274;43.980;2024-02-15T03:59:55;102145.28;;;-23.56;80.94
69982;BME280;57319;56.274;43.980;2024-02-15T04:02:24;102140.09;;;-23.63;80.43
69982;BME280;57319;56.274;43.980;2024-02-15T04:04:54;102143.41;;;-23.63;81.08
69982;BME280;57319;56.274;43.980;2024-02-15T04:07:22;102137.66;;;-23.63;81.12
69982;BME280;57319;56.274;43.980;2024-02-15T04:09:48;102134.00;;;-23.71;80.42
69982;BME280;57319;56.274;43.980;2024-02-15T04:12:14;102131.00;;;-23.80;80.61
69982;BME280;57319;56.274;43.980;2024-02-15T04:14:40;102137.25;;;-23.76;80.70
69982;BME280;57319;56.274;43.980;2024-02-15T04:17:07;102135.69;;;-23.76;80.77
69982;BME280;57319;56.274;43.980;2024-02-15T04:19:33;102125.47;;;-23.79;80.21
69982;BME280;57319;56.274;43.980;2024-02-15T04:21:59;102124.16;;;-23.77;80.36
69982;BME280;57319;56.274;43.980;2024-02-15T04:24:28;102127.66;;;-23.80;80.31
69982;BME280;57319;56.274;43.980;2024-02-15T04:26:55;102137.00;;;-23.78;80.74
69982;BME280;57319;56.274;43.980;2024-02-15T04:29:20;102139.34;;;-23.83;80.27
69982;BME280;57319;56.274;43.980;2024-02-15T04:31:46;102139.34;;;-23.83;80.89
69982;BME280;57319;56.274;43.980;2024-02-15T04:34:16;102146.66;;;-23.83;80.64
69982;BME280;57319;56.274;43.980;2024-02-15T04:36:46;102148.38;;;-23.88;80.27
69982;BME280;57319;56.274;43.980;2024-02-15T04:39:15;102145.94;;;-23.88;80.44
69982;BME280;57319;56.274;43.980;2024-02-15T04:41:50;102154.63;;;-23.84;80.41
69982;BME280;57319;56.274;43.980;2024-02-15T04:44:16;102151.13;;;-23.81;80.81
69982;BME280;57319;56.274;43.980;2024-02-15T04:46:46;102149.84;;;-23.79;79.99
69982;BME280;57319;56.274;43.980;2024-02-15T04:49:13;102151.13;;;-23.81;80.14
69982;BME280;57319;56.274;43.980;2024-02-15T04:51:39;102157.06;;;-23.84;80.19
69982;BME280;57319;56.274;43.980;2024-02-15T04:54:07;102157.53;;;-23.81;80.08
69982;BME280;57319;56.274;43.980;2024-02-15T04:56:33;102156.00;;;-23.81;80.01
69982;BME280;57319;56.274;43.980;2024-02-15T04:58:59;102161.94;;;-23.84;79.63
69982;BME280;57319;56.274;43.980;2024-02-15T05:01:24;102159.97;;;-23.81;79.71
69982;BME280;57319;56.274;43.980;2024-02-15T05:03:50;102160.47;;;-23.78;79.72
69982;BME280;57319;56.274;43.980;2024-02-15T05:06:16;102164.94;;;-23.76;79.73
69982;BME280;57319;56.274;43.980;2024-02-15T05:08:41;102158.81;;;-23.83;79.92
69982;BME280;57319;56.274;43.980;2024-02-15T05:11:13;102156.34;;;-23.73;79.84
69982;BME280;57319;56.274;43.980;2024-02-15T05:13:48;102160.78;;;-23.71;79.57
69982;BME280;57319;56.274;43.980;2024-02-15T05:16:16;102159.50;;;-23.69;79.55
69982;BME280;57319;56.274;43.980;2024-02-15T05:18:42;102155.69;;;-23.72;79.63
69982;BME280;57319;56.274;43.980;2024-02-15T05:21:08;102162.03;;;-23.63;79.75
69982;BME280;57319;56.274;43.980;2024-02-15T05:23:40;102154.56;;;-23.59;79.64
69982;BME280;57319;56.274;43.980;2024-02-15T05:26:07;102159.91;;;-23.56;79.52
69982;BME280;57319;56.274;43.980;2024-02-15T05:28:33;102163.34;;;-23.50;79.42
69982;BME280;57319;56.274;43.980;2024-02-15T05:31:32;102166.50;;;-23.45;79.19
69982;BME280;57319;56.274;43.980;2024-02-15T05:34:00;102168.06;;;-23.46;78.96
69982;BME280;57319;56.274;43.980;2024-02-15T05:36:25;102181.22;;;-23.39;78.89
69982;BME280;57319;56.274;43.980;2024-02-15T05:38:53;102176.84;;;-23.36;78.95
69982;BME280;57319;56.274;43.980;2024-02-15T05:41:19;102181.56;;;-23.32;79.13
69982;BME280;57319;56.274;43.980;2024-02-15T05:43:46;102173.41;;;-23.27;79.01
69982;BME280;57319;56.274;43.980;2024-02-15T05:46:14;102177.00;;;-23.25;79.00
69982;BME280;57319;56.274;43.980;2024-02-15T05:48:40;102181.47;;;-23.22;78.96
69982;BME280;57319;56.274;43.980;2024-02-15T05:51:08;102179.75;;;-23.18;78.60
69982;BME280;57319;56.274;43.980;2024-02-15T05:53:35;102179.09;;;-23.17;78.59
69982;BME280;57319;56.274;43.980;2024-02-15T05:56:05;102182.44;;;-23.16;78.81
69982;BME280;57319;56.274;43.980;2024-02-15T05:58:35;102186.94;;;-23.08;79.05
69982;BME280;57319;56.274;43.980;2024-02-15T06:01:03;102183.22;;;-23.06;78.35
69982;BME280;57319;56.274;43.980;2024-02-15T06:03:34;102194.72;;;-23.05;78.43
69982;BME280;57319;56.274;43.980;2024-02-15T06:06:04;102189.97;;;-22.99;78.60
69982;BME280;57319;56.274;43.980;2024-02-15T06:08:34;102192.63;;;-22.98;78.95
69982;BME280;57319;56.274;43.980;2024-02-15T06:10:59;102191.56;;;-22.94;78.98
69982;BME280;57319;56.274;43.980;2024-02-15T06:13:26;102195.38;;;-22.91;78.80
69982;BME280;57319;56.274;43.980;2024-02-15T06:15:53;102193.41;;;-22.87;78.83
69982;BME280;57319;56.274;43.980;2024-02-15T06:18:26;102203.06;;;-22.78;78.50
69982;BME280;57319;56.274;43.980;2024-02-15T06:20:57;102204.94;;;-22.71;78.95
69982;BME280;57319;56.274;43.980;2024-02-15T06:23:25;102210.56;;;-22.66;79.01
69982;BME280;57319;56.274;43.980;2024-02-15T06:25:53;102205.41;;;-22.68;78.54
69982;BME280;57319;56.274;43.980;2024-02-15T06:28:19;102206.91;;;-22.53;79.09
69982;BME280;57319;56.274;43.980;2024-02-15T06:31:06;102208.31;;;-22.49;78.32
69982;BME280;57319;56.274;43.980;2024-02-15T06:33:51;102202.94;;;-22.52;78.79
69982;BME280;57319;56.274;43.980;2024-02-15T06:36:40;102197.44;;;-22.67;78.50
69982;BME280;57319;56.274;43.980;2024-02-15T06:39:23;102203.13;;;-22.35;79.06
69982;BME280;57319;56.274;43.980;2024-02-15T06:42:08;102199.41;;;-22.28;78.46
69982;BME280;57319;56.274;43.980;2024-02-15T06:44:35;102199.00;;;-22.25;78.51
69982;BME280;57319;56.274;43.980;2024-02-15T06:47:01;102202.56;;;-22.23;78.32
69982;BME280;57319;56.274;43.980;2024-02-15T06:49:27;102202.03;;;-22.11;78.53
69982;BME280;57319;56.274;43.980;2024-02-15T06:51:52;102202.81;;;-22.00;78.40
69982;BME280;57319;56.274;43.980;2024-02-15T06:54:18;102200.00;;;-21.92;78.48
69982;BME280;57319;56.274;43.980;2024-02-15T06:56:45;102200.44;;;-21.89;78.28
69982;BME280;57319;56.274;43.980;2024-02-15T06:59:13;102204.50;;;-21.84;78.15
69982;BME280;57319;56.274;43.980;2024-02-15T07:01:42;102209.81;;;-21.87;78.12
69982;BME280;57319;56.274;43.980;2024-02-15T07:04:11;102211.66;;;-21.80;78.22
69982;BME280;57319;56.274;43.980;2024-02-15T07:06:38;102207.28;;;-21.71;78.04
69982;BME280;57319;56.274;43.980;2024-02-15T07:09:05;102211.75;;;-21.68;77.90
69982;BME280;57319;56.274;43.980;2024-02-15T07:11:35;102217.28;;;-21.70;77.72
69982;BME280;57319;56.274;43.980;2024-02-15T07:14:01;102210.53;;;-21.49;78.14
69982;BME280;57319;56.274;43.980;2024-02-15T07:16:27;102213.44;;;-21.52;77.66
69982;BME280;57319;56.274;43.980;2024-02-15T07:18:53;102215.88;;;-21.46;77.70
69982;BME280;57319;56.274;43.980;2024-02-15T07:21:22;102205.69;;;-21.44;77.81
69982;BME280;57319;56.274;43.980;2024-02-15T07:23:55;102216.81;;;-21.40;77.62
69982;BME280;57319;56.274;43.980;2024-02-15T07:26:22;102223.09;;;-21.31;77.92
69982;BME280;57319;56.274;43.980;2024-02-15T07:28:52;102218.66;;;-21.28;77.78
69982;BME280;57319;56.274;43.980;2024-02-15T07:31:21;102218.75;;;-21.22;77.53
69982;BME280;57319;56.274;43.980;2024-02-15T07:33:50;102219.88;;;-21.14;77.93
69982;BME280;57319;56.274;43.980;2024-02-15T07:36:20;102220.84;;;-21.03;78.07
69982;BME280;57319;56.274;43.980;2024-02-15T07:38:47;102216.22;;;-20.95;77.85
69982;BME280;57319;56.274;43.980;2024-02-15T07:41:15;102220.91;;;-20.91;77.92
69982;BME280;57319;56.274;43.980;2024-02-15T07:43:40;102236.38;;;-20.75;77.74
69982;BME280;57319;56.274;43.980;2024-02-15T07:46:06;102234.59;;;-20.65;77.50
69982;BME280;57319;56.274;43.980;2024-02-15T07:48:33;102231.50;;;-20.58;77.68
69982;BME280;57319;56.274;43.980;2024-02-15T07:50:58;102239.50;;;-20.59;76.72
69982;BME280;57319;56.274;43.980;2024-02-15T07:53:24;102244.28;;;-20.38;77.34
69982;BME280;57319;56.274;43.980;2024-02-15T07:55:50;102237.38;;;-20.41;77.01
69982;BME280;57319;56.274;43.980;2024-02-15T07:58:16;102238.75;;;-20.31;77.25
69982;BME280;57319;56.274;43.980;2024-02-15T08:00:45;102231.41;;;-20.20;77.31
69982;BME280;57319;56.274;43.980;2024-02-15T08:03:11;102240.56;;;-20.13;77.17
69982;BME280;57319;56.274;43.980;2024-02-15T08:05:37;102244.75;;;-20.29;75.75
69982;BME280;57319;56.274;43.980;2024-02-15T08:08:03;102237.94;;;-19.98;76.06
69982;BME280;57319;56.274;43.980;2024-02-15T08:10:29;102236.63;;;-19.85;76.65
69982;BME280;57319;56.274;43.980;2024-02-15T08:12:56;102243.53;;;-19.82;76.46
69982;BME280;57319;56.274;43.980;2024-02-15T08:15:23;102238.16;;;-19.74;75.33
69982;BME280;57319;56.274;43.980;2024-02-15T08:17:49;102237.94;;;-19.53;76.11
69982;BME280;57319;56.274;43.980;2024-02-15T08:20:16;102237.06;;;-19.48;75.71
69982;BME280;57319;56.274;43.980;2024-02-15T08:22:47;102241.06;;;-19.48;75.66
69982;BME280;57319;56.274;43.980;2024-02-15T08:25:13;102237.94;;;-19.36;76.10
69982;BME280;57319;56.274;43.980;2024-02-15T08:27:42;102237.28;;;-19.46;74.89
69982;BME280;57319;56.274;43.980;2024-02-15T08:30:10;102235.47;;;-19.36;75.01
69982;BME280;57319;56.274;43.980;2024-02-15T08:32:40;102237.25;;;-19.18;75.04
69982;BME280;57319;56.274;43.980;2024-02-15T08:35:09;102235.44;;;-19.02;75.87
69982;BME280;57319;56.274;43.980;2024-02-15T08:37:36;102235.00;;;-18.99;75.98
69982;BME280;57319;56.274;43.980;2024-02-15T08:40:07;102235.88;;;-18.87;75.61
69982;BME280;57319;56.274;43.980;2024-02-15T08:42:42;102231.81;;;-18.81;75.24
69982;BME280;57319;56.274;43.980;2024-02-15T08:45:09;102225.78;;;-18.77;75.45
69982;BME280;57319;56.274;43.980;2024-02-15T08:47:39;102222.63;;;-18.82;74.31
69982;BME280;57319;56.274;43.980;2024-02-15T08:50:06;102225.72;;;-18.61;75.26
69982;BME280;57319;56.274;43.980;2024-02-15T08:52:33;102227.19;;;-18.38;75.19
69982;BME280;57319;56.274;43.980;2024-02-15T08:55:07;102234.53;;;-18.33;74.93
69982;BME280;57319;56.274;43.980;2024-02-15T08:57:37;102235.41;;;-18.27;74.26
69982;BME280;57319;56.274;43.980;2024-02-15T09:00:06;102236.66;;;-18.12;74.64
69982;BME280;57319;56.274;43.980;2024-02-15T09:02:45;102244.06;;;-18.12;73.58
69982;BME280;57319;56.274;43.980;2024-02-15T09:05:11;102248.47;;;-18.03;74.37
69982;BME280;57319;56.274;43.980;2024-02-15T09:07:41;102241.41;;;-17.89;73.48
69982;BME280;57319;56.274;43.980;2024-02-15T09:10:11;102248.97;;;-17.82;73.37
69982;BME280;57319;56.274;43.980;2024-02-15T09:12:38;102247.88;;;-17.84;73.23
69982;BME280;57319;56.274;43.980;2024-02-15T09:15:09;102258.78;;;-17.76;73.11
69982;BME280;57319;56.274;43.980;2024-02-15T09:17:36;102263.44;;;-17.66;72.96
69982;BME280;57319;56.274;43.980;2024-02-15T09:20:06;102262.50;;;-17.67;73.03
69982;BME280;57319;56.274;43.980;2024-02-15T09:22:33;102257.13;;;-17.64;70.16
69982;BME280;57319;56.274;43.980;2024-02-15T09:24:59;102247.59;;;-17.44;71.24
69982;BME280;57319;56.274;43.980;2024-02-15T09:27:26;102255.75;;;-17.32;71.57
69982;BME280;57319;56.274;43.980;2024-02-15T09:29:51;102248.09;;;-17.22;70.81
69982;BME280;57319;56.274;43.980;2024-02-15T09:32:17;102249.97;;;-17.09;71.31
69982;BME280;57319;56.274;43.980;2024-02-15T09:34:42;102258.84;;;-16.98;70.86
69982;BME280;57319;56.274;43.980;2024-02-15T09:37:08;102259.44;;;-17.17;71.00
69982;BME280;57319;56.274;43.980;2024-02-15T09:39:34;102255.59;;;-17.10;71.64
69982;BME280;57319;56.274;43.980;2024-02-15T09:42:01;102246.66;;;-17.15;70.67
69982;BME280;57319;56.274;43.980;2024-02-15T09:44:27;102254.00;;;-17.09;70.79
69982;BME280;57319;56.274;43.980;2024-02-15T09:47:02;102250.06;;;-17.20;71.22
69982;BME280;57319;56.274;43.980;2024-02-15T09:49:38;102242.94;;;-17.24;69.39
69982;BME280;57319;56.274;43.980;2024-02-15T09:52:08;102249.00;;;-16.98;71.40
69982;BME280;57319;56.274;43.980;2024-02-15T09:54:40;102245.09;;;-16.90;69.87
69982;BME280;57319;56.274;43.980;2024-02-15T09:57:12;102236.38;;;-16.75;70.18
69982;BME280;57319;56.274;43.980;2024-02-15T09:59:47;102241.38;;;-16.62;69.78
69982;BME280;57319;56.274;43.980;2024-02-15T10:02:14;102235.09;;;-16.60;69.77
69982;BME280;57319;56.274;43.980;2024-02-15T10:04:45;102229.44;;;-16.53;69.92
69982;BME280;57319;56.274;43.980;2024-02-15T10:07:13;102223.84;;;-16.58;69.54
69982;BME280;57319;56.274;43.980;2024-02-15T10:09:39;102226.13;;;-16.60;70.48
69982;BME280;57319;56.274;43.980;2024-02-15T10:12:08;102228.47;;;-16.48;70.25
69982;BME280;57319;56.274;43.980;2024-02-15T10:14:35;102221.75;;;-16.49;69.63
69982;BME280;57319;56.274;43.980;2024-02-15T10:17:07;102221.63;;;-16.57;69.87
69982;BME280;57319;56.274;43.980;2024-02-15T10:19:39;102213.94;;;-16.71;70.07
69982;BME280;57319;56.274;43.980;2024-02-15T10:22:09;102213.72;;;-16.73;70.91
69982;BME280;57319;56.274;43.980;2024-02-15T10:24:35;102212.34;;;-16.70;71.00
69982;BME280;57319;56.274;43.980;2024-02-15T10:27:03;102204.41;;;-16.62;71.01
69982;BME280;57319;56.274;43.980;2024-02-15T10:29:30;102214.50;;;-16.61;70.03
69982;BME280;57319;56.274;43.980;2024-02-15T10:31:59;102215.91;;;-16.50;70.93
69982;BME280;57319;56.274;43.980;2024-02-15T10:34:25;102226.47;;;-16.51;70.44
69982;BME280;57319;56.274;43.980;2024-02-15T10:37:10;102218.72;;;-16.60;70.79
69982;BME280;57319;56.274;43.980;2024-02-15T10:39:37;102232.56;;;-16.73;70.35
69982;BME280;57319;56.274;43.980;2024-02-15T10:42:03;102228.03;;;-16.70;71.84
69982;BME280;57319;56.274;43.980;2024-02-15T10:44:29;102229.06;;;-16.62;71.00
69982;BME280;57319;56.274;43.980;2024-02-15T10:46:55;102232.38;;;-16.56;71.49
69982;BME280;57319;56.274;43.980;2024-02-15T10:49:22;102232.03;;;-16.46;71.24
69982;BME280;57319;56.274;43.980;2024-02-15T10:51:59;102243.28;;;-16.48;70.78
69982;BME280;57319;56.274;43.980;2024-02-15T10:54:43;102241.53;;;-16.36;70.88
69982;BME280;57319;56.274;43.980;2024-02-15T10:57:12;102243.81;;;-16.19;70.60
69982;BME280;57319;56.274;43.980;2024-02-15T10:59:54;102244.44;;;-16.02;70.79
69982;BME280;57319;56.274;43.980;2024-02-15T11:04:51;102241.31;;;-16.01;70.11
69982;BME280;57319;56.274;43.980;2024-02-15T11:07:23;102246.03;;;-16.02;69.91
69982;BME280;57319;56.274;43.980;2024-02-15T11:09:50;102239.38;;;-15.91;69.20
69982;BME280;57319;56.274;43.980;2024-02-15T11:12:17;102240.44;;;-16.01;70.03
69982;BME280;57319;56.274;43.980;2024-02-15T11:14:46;102241.06;;;-16.15;68.47
69982;BME280;57319;56.274;43.980;2024-02-15T11:20:09;102241.31;;;-16.01;70.14
69982;BME280;57319;56.274;43.980;2024-02-15T11:22:38;102231.03;;;-16.04;68.83
69982;BME280;57319;56.274;43.980;2024-02-15T11:25:08;102231.44;;;-16.01;68.04
69982;BME280;57319;56.274;43.980;2024-02-15T11:27:40;102228.69;;;-15.97;69.20
69982;BME280;57319;56.274;43.980;2024-02-15T11:30:07;102223.72;;;-16.10;69.42
69982;BME280;57319;56.274;43.980;2024-02-15T11:32:47;102226.09;;;-16.04;69.95
69982;BME280;57319;56.274;43.980;2024-02-15T11:43:07;102237.44;;;-16.30;67.75
69982;BME280;57319;56.274;43.980;2024-02-15T11:45:35;102238.00;;;-16.39;65.98
69982;BME280;57319;56.274;43.980;2024-02-15T11:48:08;102229.94;;;-16.06;68.12
69982;BME280;57319;56.274;43.980;2024-02-15T11:50:37;102225.97;;;-16.11;69.69
69982;BME280;57319;56.274;43.980;2024-02-15T11:53:06;102223.38;;;-16.18;69.53
69982;BME280;57319;56.274;43.980;2024-02-15T11:55:35;102222.81;;;-16.10;70.76
69982;BME280;57319;56.274;43.980;2024-02-15T11:58:02;102219.81;;;-16.20;70.06
69982;BME280;57319;56.274;43.980;2024-02-15T12:00:48;102214.25;;;-16.25;71.16
69982;BME280;57319;56.274;43.980;2024-02-15T12:03:32;102216.03;;;-16.24;71.40
69982;BME280;57319;56.274;43.980;2024-02-15T12:06:17;102216.81;;;-16.31;71.29
69982;BME280;57319;56.274;43.980;2024-02-15T12:09:02;102213.13;;;-16.40;71.69
69982;BME280;57319;56.274;43.980;2024-02-15T12:11:46;102208.25;;;-16.46;72.34
69982;BME280;57319;56.274;43.980;2024-02-15T12:14:30;102213.13;;;-16.59;71.36
69982;BME280;57319;56.274;43.980;2024-02-15T12:17:14;102217.91;;;-16.66;72.21
69982;BME280;57319;56.274;43.980;2024-02-15T12:20:02;102218.66;;;-16.73;73.08
69982;BME280;57319;56.274;43.980;2024-02-15T12:22:44;102223.94;;;-16.82;73.01
69982;BME280;57319;56.274;43.980;2024-02-15T12:25:14;102216.97;;;-16.98;73.04
69982;BME280;57319;56.274;43.980;2024-02-15T12:27:42;102213.06;;;-16.90;73.24
69982;BME280;57319;56.274;43.980;2024-02-15T12:30:13;102218.34;;;-16.87;73.76
69982;BME280;57319;56.274;43.980;2024-02-15T12:32:39;102215.88;;;-16.87;73.99
69982;BME280;57319;56.274;43.980;2024-02-15T12:35:15;102206.00;;;-16.81;74.67
69982;BME280;57319;56.274;43.980;2024-02-15T12:38:08;102218.66;;;-16.91;73.83
69982;BME280;57319;56.274;43.980;2024-02-15T12:40:42;102208.81;;;-16.91;74.68
69982;BME280;57319;56.274;43.980;2024-02-15T12:43:09;102211.25;;;-16.91;74.54
69982;BME280;57319;56.274;43.980;2024-02-15T12:45:39;102212.84;;;-16.92;74.31
69982;BME280;57319;56.274;43.980;2024-02-15T12:48:09;102223.19;;;-16.94;74.28
69982;BME280;57319;56.274;43.980;2024-02-15T12:50:36;102218.50;;;-16.98;73.09
69982;BME280;57319;56.274;43.980;2024-02-15T12:53:02;102219.94;;;-17.06;72.95